createdAt,value
2022-08-09T00:01:48.379Z,100943.84
2022-08-09T00:04:35.373Z,100947.19
2022-08-09T00:07:07.632Z,100946.78
2022-08-09T00:09:40.018Z,100945.59
2022-08-09T00:12:09.281Z,100939.34
2022-08-09T00:14:51.063Z,100933.00
2022-08-09T00:18:06.204Z,100928.31
2022-08-09T00:20:16.685Z,100921.72
2022-08-09T00:22:47.206Z,100922.63
2022-08-09T00:25:15.857Z,100929.19
2022-08-09T00:27:52.009Z,100924.97
2022-08-09T00:30:26.182Z,100929.91
2022-08-09T00:32:56.952Z,100934.84
2022-08-09T00:35:26.371Z,100938.00
2022-08-09T00:37:58.060Z,100938.69
2022-08-09T00:40:30.227Z,100944.16
2022-08-09T00:44:15.598Z,100946.31
2022-08-09T00:45:53.959Z,100938.41
2022-08-09T00:48:24.149Z,100942.03
2022-08-09T00:50:54.049Z,100936.44
2022-08-09T00:53:24.018Z,100939.56
2022-08-09T00:56:05.226Z,100928.63
2022-08-09T00:58:38.989Z,100936.41
2022-08-09T01:01:16.214Z,100933.28
2022-08-09T01:03:57.029Z,100940.22
2022-08-09T01:06:54.419Z,100935.75
2022-08-09T01:09:35.872Z,100934.13
2022-08-09T01:12:18.754Z,100926.53
2022-08-09T01:15:01.641Z,100925.50
2022-08-09T01:17:39.863Z,100929.47
2022-08-09T01:20:14.866Z,100920.94
2022-08-09T01:24:01.841Z,100925.84
2022-08-09T01:26:46.176Z,100932.31
2022-08-09T01:29:17.092Z,100931.13
2022-08-09T01:32:31.324Z,100929.31
2022-08-09T01:34:39.182Z,100926.13
2022-08-09T01:37:13.685Z,100924.31
2022-08-09T01:39:45.480Z,100927.28
2022-08-09T01:42:17.168Z,100933.38
2022-08-09T01:44:48.629Z,100931.06
2022-08-09T01:47:18.170Z,100927.84
2022-08-09T01:49:50.774Z,100929.25
2022-08-09T01:52:21.507Z,100934.34
2022-08-09T01:54:56.476Z,100924.97
2022-08-09T01:57:30.278Z,100922.06
2022-08-09T02:00:34.479Z,100920.53
2022-08-09T02:03:00.751Z,100926.56
2022-08-09T02:05:38.158Z,100920.06
2022-08-09T02:08:40.609Z,100926.78
2022-08-09T02:11:17.206Z,100932.16
2022-08-09T02:14:06.223Z,100926.00
2022-08-09T02:16:58.983Z,100923.66
2022-08-09T02:19:34.849Z,100926.31
2022-08-09T02:22:14.812Z,100931.16
2022-08-09T02:24:51.980Z,100924.94
2022-08-09T02:27:27.452Z,100923.41
2022-08-09T02:30:15.610Z,100930.41
2022-08-09T02:32:48.474Z,100936.50
2022-08-09T02:36:01.108Z,100940.34
2022-08-09T02:38:27.804Z,100940.75
2022-08-09T02:41:03.062Z,100939.00
2022-08-09T02:43:53.465Z,100942.53
2022-08-09T02:46:28.593Z,100938.72
2022-08-09T02:49:01.444Z,100930.19
2022-08-09T02:51:37.258Z,100922.94
2022-08-09T02:54:13.993Z,100927.16
2022-08-09T02:56:51.163Z,100927.97
2022-08-09T02:59:26.596Z,100926.53
2022-08-09T03:02:12.002Z,100937.03
2022-08-09T03:04:42.829Z,100933.53
2022-08-09T03:07:14.192Z,100940.06
2022-08-09T03:09:53.955Z,100936.56
2022-08-09T03:12:27.055Z,100932.03
2022-08-09T03:14:56.340Z,100937.44
2022-08-09T03:17:27.689Z,100930.59
2022-08-09T03:20:03.506Z,100929.78
2022-08-09T03:22:41.909Z,100930.78
2022-08-09T03:25:56.791Z,100929.78
2022-08-09T03:28:05.156Z,100933.72
2022-08-09T03:30:40.399Z,100929.47
2022-08-09T03:33:18.685Z,100934.63
2022-08-09T03:36:15.707Z,100936.09
2022-08-09T03:38:41.909Z,100940.00
2022-08-09T03:41:15.376Z,100933.56
2022-08-09T03:44:03.496Z,100944.53
2022-08-09T03:46:36.106Z,100943.81
2022-08-09T03:49:08.957Z,100938.25
2022-08-09T03:51:56.962Z,100943.94
2022-08-09T03:54:32.132Z,100942.16
2022-08-09T03:57:18.725Z,100950.88
2022-08-09T03:59:54.211Z,100953.56
2022-08-09T04:02:28.194Z,100950.22
2022-08-09T04:05:06.398Z,100957.88
2022-08-09T04:07:52.440Z,100954.25
2022-08-09T04:10:29.315Z,100950.94
2022-08-09T04:13:04.542Z,100956.50
2022-08-09T04:16:17.884Z,100953.19
2022-08-09T04:18:22.264Z,100963.38
2022-08-09T04:20:55.416Z,100955.06
2022-08-09T04:23:24.700Z,100966.13
2022-08-09T04:25:54.780Z,100964.25
2022-08-09T04:28:33.180Z,100965.50
2022-08-09T04:31:07.881Z,100970.63
2022-08-09T04:33:52.407Z,100973.88
2022-08-09T04:36:29.322Z,100976.22
2022-08-09T04:38:59.704Z,100976.03
2022-08-09T04:41:32.801Z,100982.06
2022-08-09T04:44:05.705Z,100984.09
2022-08-09T04:46:57.421Z,100986.50
2022-08-09T04:49:40.820Z,100980.66
2022-08-09T04:52:18.466Z,100985.44
2022-08-09T04:54:52.320Z,100985.97
2022-08-09T04:57:24.325Z,100980.53
2022-08-09T04:59:54.294Z,100985.53
2022-08-09T05:02:23.801Z,100987.91
2022-08-09T05:04:56.515Z,100985.28
2022-08-09T05:07:27.680Z,100982.41
2022-08-09T05:09:57.735Z,100993.19
2022-08-09T05:12:31.166Z,100989.78
2022-08-09T05:15:11.806Z,100989.88
2022-08-09T05:18:38.008Z,100988.06
2022-08-09T05:20:40.823Z,100987.19
2022-08-09T05:23:54.845Z,100983.56
2022-08-09T05:25:58.897Z,100981.22
2022-08-09T05:28:27.431Z,100986.78
2022-08-09T05:30:56.127Z,100981.19
2022-08-09T05:33:33.194Z,100983.91
2022-08-09T05:36:03.952Z,100985.91
2022-08-09T05:38:34.014Z,100985.75
2022-08-09T05:41:08.436Z,100989.38
2022-08-09T05:43:45.176Z,100991.09
2022-08-09T05:46:17.370Z,100993.44
2022-08-09T05:48:58.540Z,100996.22
2022-08-09T05:51:42.418Z,100994.09
2022-08-09T05:54:17.922Z,100995.59
2022-08-09T05:56:55.379Z,100996.41
2022-08-09T05:59:25.284Z,101002.34
2022-08-09T06:01:58.811Z,100996.78
2022-08-09T06:04:34.879Z,101001.00
2022-08-09T06:07:04.089Z,100993.38
2022-08-09T06:09:54.468Z,100996.50
2022-08-09T06:12:22.189Z,100994.25
2022-08-09T06:14:54.950Z,100992.34
2022-08-09T06:17:27.214Z,100990.50
2022-08-09T06:20:08.954Z,100997.59
2022-08-09T06:22:38.285Z,100983.03
2022-08-09T06:25:12.427Z,100996.72
2022-08-09T06:27:51.328Z,100993.91
2022-08-09T06:30:20.888Z,101000.53
2022-08-09T06:32:59.458Z,101001.66
2022-08-09T06:35:56.002Z,101002.03
2022-08-09T06:38:18.037Z,101006.22
2022-08-09T06:40:49.011Z,101009.44
2022-08-09T06:43:23.466Z,101014.50
2022-08-09T06:46:06.493Z,101009.75
2022-08-09T06:48:42.862Z,100998.47
2022-08-09T06:51:12.672Z,101008.47
2022-08-09T06:53:43.138Z,101004.84
2022-08-09T06:56:13.484Z,101003.84
2022-08-09T07:00:50.511Z,101002.78
2022-08-09T07:01:35.782Z,101015.34
2022-08-09T07:04:20.986Z,101019.16
2022-08-09T07:06:53.118Z,101021.44
2022-08-09T07:09:55.582Z,101029.53
2022-08-09T07:12:13.784Z,101028.63
2022-08-09T07:14:50.731Z,101015.66
2022-08-09T07:17:22.145Z,101016.69
2022-08-09T07:19:55.246Z,101026.53
2022-08-09T07:22:34.413Z,101019.78
2022-08-09T07:25:05.075Z,101018.94
2022-08-09T07:27:42.642Z,101019.13
2022-08-09T07:30:14.826Z,101022.31
2022-08-09T07:32:43.848Z,101025.06
2022-08-09T07:35:14.966Z,101019.81
2022-08-09T07:37:46.166Z,101019.72
2022-08-09T07:40:20.486Z,101026.88
2022-08-09T07:42:57.053Z,101020.16
2022-08-09T07:45:37.513Z,101019.91
2022-08-09T07:48:28.605Z,101011.09
2022-08-09T07:51:09.987Z,101014.19
2022-08-09T07:54:07.390Z,101015.47
2022-08-09T07:56:44.876Z,101006.53
2022-08-09T07:59:33.916Z,101005.84
2022-08-09T08:02:03.550Z,101007.53
2022-08-09T08:04:34.089Z,101010.47
2022-08-09T08:07:21.593Z,101014.72
2022-08-09T08:09:54.940Z,101007.72
2022-08-09T08:12:33.815Z,101013.69
2022-08-09T08:15:03.861Z,101009.94
2022-08-09T08:17:52.155Z,101004.09
2022-08-09T08:20:29.520Z,101013.56
2022-08-09T08:23:06.546Z,101018.75
2022-08-09T08:25:53.932Z,101017.34
2022-08-09T08:28:35.450Z,101019.66
2022-08-09T08:31:13.835Z,101015.19
2022-08-09T08:33:52.923Z,101018.38
2022-08-09T08:36:28.624Z,101013.47
2022-08-09T08:38:58.526Z,101011.00
2022-08-09T08:41:50.343Z,101014.09
2022-08-09T08:44:27.515Z,101012.22
2022-08-09T08:47:04.993Z,101002.59
2022-08-09T08:49:48.657Z,101013.28
2022-08-09T08:52:52.818Z,101025.56
2022-08-09T08:55:09.330Z,101027.94
2022-08-09T08:57:38.731Z,101022.25
2022-08-09T09:00:16.932Z,101013.44
2022-08-09T09:02:55.402Z,101011.44
2022-08-09T09:05:57.772Z,101024.38
2022-08-09T09:08:30.515Z,101030.31
2022-08-09T09:11:04.202Z,101040.97
2022-08-09T09:13:55.903Z,101034.19
2022-08-09T09:16:29.742Z,101032.78
2022-08-09T09:19:36.903Z,101032.72
2022-08-09T09:22:11.720Z,101029.94
2022-08-09T09:24:44.906Z,101030.09
2022-08-09T09:27:47.235Z,101037.31
2022-08-09T09:30:27.504Z,101030.28
2022-08-09T09:33:13.874Z,101032.22
2022-08-09T09:36:01.455Z,101032.88
2022-08-09T09:38:46.838Z,101032.56
2022-08-09T09:41:48.674Z,101043.25
2022-08-09T09:44:27.884Z,101027.63
2022-08-09T09:47:08.986Z,101032.09
2022-08-09T09:50:13.245Z,101030.72
2022-08-09T09:52:37.297Z,101031.88
2022-08-09T09:55:27.713Z,101038.19
2022-08-09T09:58:15.647Z,101034.59
2022-08-09T10:00:53.852Z,101018.03
2022-08-09T10:03:57.630Z,101030.56
2022-08-09T10:06:32.479Z,101029.72
2022-08-09T10:09:11.768Z,101019.91
2022-08-09T10:12:12.434Z,101016.22
2022-08-09T10:14:48.792Z,101026.81
2022-08-09T10:17:51.097Z,101016.38
2022-08-09T10:20:36.061Z,101027.19
2022-08-09T10:23:20.294Z,101024.03
2022-08-09T10:26:05.972Z,101023.88
2022-08-09T10:28:40.870Z,101024.28
2022-08-09T10:34:10.761Z,101024.13
2022-08-09T10:36:56.719Z,101020.25
2022-08-09T10:39:28.694Z,101027.41
2022-08-09T10:41:58.663Z,101028.53
2022-08-09T10:44:30.368Z,101023.72
2022-08-09T10:48:26.052Z,101013.28
2022-08-09T10:50:52.109Z,101017.66
2022-08-09T10:53:46.714Z,101014.38
2022-08-09T10:56:25.610Z,101010.31
2022-08-09T10:58:57.455Z,101010.53
2022-08-09T11:03:13.673Z,101005.81
2022-08-09T11:04:32.655Z,101017.56
2022-08-09T11:07:57.869Z,101013.19
2022-08-09T11:10:31.956Z,101007.47
2022-08-09T11:13:53.693Z,101005.56
2022-08-09T11:16:37.968Z,101002.47
2022-08-09T11:19:10.649Z,101013.81
2022-08-09T11:21:57.485Z,101006.16
2022-08-09T11:25:04.546Z,100998.63
2022-08-09T11:28:05.433Z,101005.00
2022-08-09T11:30:36.520Z,101007.25
2022-08-09T11:33:26.372Z,100997.91
2022-08-09T11:35:58.666Z,101003.84
2022-08-09T11:38:33.189Z,100997.00
2022-08-09T11:41:38.180Z,100993.41
2022-08-09T11:44:09.304Z,100986.16
2022-08-09T11:46:59.600Z,100996.13
2022-08-09T11:50:56.582Z,100989.50
2022-08-09T11:53:55.059Z,100990.53
2022-08-09T11:56:42.314Z,100983.94
2022-08-09T11:59:30.715Z,100984.94
2022-08-09T12:02:21.255Z,100983.44
2022-08-09T12:04:58.733Z,100978.09
2022-08-09T12:07:41.161Z,100984.94
2022-08-09T12:10:14.167Z,100980.94
2022-08-09T12:13:03.724Z,100977.16
2022-08-09T12:15:52.221Z,100972.63
2022-08-09T12:18:29.663Z,100968.53
2022-08-09T12:21:02.674Z,100961.34
2022-08-09T12:23:56.454Z,100965.31
2022-08-09T12:26:25.806Z,100968.19
2022-08-09T12:29:13.567Z,100961.78
2022-08-09T12:32:02.490Z,100964.97
2022-08-09T12:34:36.773Z,100963.16
2022-08-09T12:37:21.983Z,100956.19
2022-08-09T12:40:07.729Z,100954.56
2022-08-09T12:42:37.855Z,100945.25
2022-08-09T12:45:33.706Z,100934.97
2022-08-09T12:47:58.801Z,100945.50
2022-08-09T12:50:28.606Z,100935.22
2022-08-09T12:53:17.607Z,100935.47
2022-08-09T12:56:16.129Z,100933.81
2022-08-09T12:58:42.551Z,100938.03
2022-08-09T13:01:26.890Z,100931.75
2022-08-09T13:04:02.299Z,100926.88
2022-08-09T13:06:35.669Z,100930.59
2022-08-09T13:09:13.585Z,100927.84
2022-08-09T13:11:46.598Z,100919.31
2022-08-09T13:14:41.026Z,100916.16
2022-08-09T13:17:44.274Z,100922.59
2022-08-09T13:20:17.486Z,100909.03
2022-08-09T13:23:02.167Z,100904.81
2022-08-09T13:25:52.910Z,100910.00
2022-08-09T13:28:34.198Z,100905.06
2022-08-09T13:32:13.314Z,100911.59
2022-08-09T13:33:57.266Z,100912.97
2022-08-09T13:36:40.754Z,100915.56
2022-08-09T13:41:19.533Z,100909.44
2022-08-09T13:42:03.223Z,100902.00
2022-08-09T13:44:35.024Z,100903.59
2022-08-09T13:47:26.616Z,100902.63
2022-08-09T13:49:57.450Z,100892.63
2022-08-09T13:52:30.163Z,100894.13
2022-08-09T13:55:02.063Z,100891.34
2022-08-09T13:57:40.334Z,100895.59
2022-08-09T14:00:16.117Z,100892.03
2022-08-09T14:03:16.894Z,100888.22
2022-08-09T14:06:00.479Z,100893.56
2022-08-09T14:08:26.927Z,100894.38
2022-08-09T14:10:56.662Z,100889.63
2022-08-09T14:13:28.206Z,100884.13
2022-08-09T14:16:19.101Z,100887.16
2022-08-09T14:18:51.800Z,100897.59
2022-08-09T14:21:24.007Z,100883.13
2022-08-09T14:23:57.130Z,100890.59
2022-08-09T14:26:32.127Z,100890.16
2022-08-09T14:29:07.824Z,100876.31
2022-08-09T14:31:55.613Z,100878.16
2022-08-09T14:34:27.341Z,100880.72
2022-08-09T14:37:06.872Z,100875.00
2022-08-09T14:39:45.373Z,100866.69
2022-08-09T14:42:30.922Z,100864.91
2022-08-09T14:46:54.364Z,100867.19
2022-08-09T14:47:58.319Z,100869.56
2022-08-09T14:50:31.547Z,100850.72
2022-08-09T14:53:02.146Z,100867.63
2022-08-09T14:55:32.553Z,100877.66
2022-08-09T14:58:03.801Z,100864.38
2022-08-09T15:00:35.208Z,100869.88
2022-08-09T15:03:08.836Z,100869.72
2022-08-09T15:05:40.362Z,100869.53
2022-08-09T15:08:19.812Z,100868.34
2022-08-09T15:11:00.628Z,100871.75
2022-08-09T15:13:48.513Z,100867.28
2022-08-09T15:16:22.583Z,100858.56
2022-08-09T15:18:52.605Z,100854.47
2022-08-09T15:22:01.866Z,100856.75
2022-08-09T15:24:17.461Z,100863.41
2022-08-09T15:26:47.841Z,100858.56
2022-08-09T15:30:56.021Z,100859.63
2022-08-09T15:32:29.450Z,100849.59
2022-08-09T15:35:01.371Z,100848.59
2022-08-09T15:37:38.155Z,100845.53
2022-08-09T15:40:32.005Z,100843.47
2022-08-09T15:43:01.865Z,100849.69
2022-08-09T15:45:31.333Z,100833.53
2022-08-09T15:48:29.466Z,100840.81
2022-08-09T15:51:29.973Z,100831.97
2022-08-09T15:54:03.155Z,100830.81
2022-08-09T15:56:36.770Z,100834.78
2022-08-09T15:59:05.873Z,100831.31
2022-08-09T16:01:35.783Z,100833.22
2022-08-09T16:04:04.760Z,100828.53
2022-08-09T16:06:37.415Z,100831.88
2022-08-09T16:09:06.920Z,100838.25
2022-08-09T16:16:13.509Z,100835.78
2022-08-09T16:18:45.657Z,100834.16
2022-08-09T16:21:17.689Z,100829.34
2022-08-09T16:24:01.704Z,100831.59
2022-08-09T16:26:34.921Z,100833.91
2022-08-09T16:29:10.419Z,100842.13
2022-08-09T16:32:20.065Z,100831.72
2022-08-09T16:34:54.845Z,100831.19
2022-08-09T16:37:20.494Z,100829.28
2022-08-09T16:40:12.908Z,100838.50
2022-08-09T16:42:44.903Z,100831.41
2022-08-09T16:45:17.448Z,100828.63
2022-08-09T16:48:40.194Z,100833.34
2022-08-09T16:50:35.400Z,100830.00
2022-08-09T16:53:09.049Z,100823.25
2022-08-09T16:55:59.625Z,100826.06
2022-08-09T16:58:29.896Z,100821.78
2022-08-09T17:01:05.211Z,100824.16
2022-08-09T17:03:33.977Z,100823.25
2022-08-09T17:06:08.006Z,100819.00
2022-08-09T17:09:02.740Z,100813.63
2022-08-09T17:11:42.466Z,100821.53
2022-08-09T17:14:25.447Z,100819.94
2022-08-09T17:17:00.125Z,100818.56
2022-08-09T17:19:47.670Z,100823.72
2022-08-09T17:22:24.229Z,100812.63
2022-08-09T17:25:03.203Z,100817.94
2022-08-09T17:27:38.165Z,100817.44
2022-08-09T17:30:12.960Z,100823.72
2022-08-09T17:32:44.400Z,100825.16
2022-08-09T17:35:15.039Z,100827.16
2022-08-09T17:38:10.131Z,100827.41
2022-08-09T17:40:34.947Z,100828.44
2022-08-09T17:43:32.819Z,100824.25
2022-08-09T17:46:02.632Z,100834.44
2022-08-09T17:48:33.001Z,100831.06
2022-08-09T17:51:10.093Z,100828.63
2022-08-09T17:53:51.868Z,100829.72
2022-08-09T17:56:27.870Z,100836.59
2022-08-09T17:59:01.052Z,100835.63
2022-08-09T18:02:03.737Z,100839.47
2022-08-09T18:04:22.459Z,100840.75
2022-08-09T18:06:55.807Z,100831.09
2022-08-09T18:09:40.498Z,100833.34
2022-08-09T18:12:19.452Z,100846.19
2022-08-09T18:14:54.635Z,100843.13
2022-08-09T18:18:01.526Z,100840.13
2022-08-09T18:20:59.346Z,100843.59
2022-08-09T18:23:07.321Z,100848.94
2022-08-09T18:25:53.062Z,100846.50
2022-08-09T18:30:40.546Z,100844.16
2022-08-09T18:31:32.185Z,100850.53
2022-08-09T18:34:09.691Z,100838.78
2022-08-09T18:36:38.761Z,100849.97
2022-08-09T18:39:16.175Z,100850.09
2022-08-09T18:41:52.588Z,100850.09
2022-08-09T18:44:25.662Z,100846.34
2022-08-09T18:47:05.424Z,100849.97
2022-08-09T18:49:43.149Z,100853.69
2022-08-09T18:52:24.624Z,100853.91
2022-08-09T18:54:53.778Z,100859.25
2022-08-09T18:57:23.876Z,100860.63
2022-08-09T18:59:57.810Z,100859.88
2022-08-09T19:02:32.481Z,100859.38
2022-08-09T19:05:14.748Z,100862.25
2022-08-09T19:07:59.410Z,100863.00
2022-08-09T19:10:39.833Z,100868.31
2022-08-09T19:13:22.615Z,100867.16
2022-08-09T19:15:55.686Z,100873.72
2022-08-09T19:18:33.710Z,100880.56
2022-08-09T19:21:08.824Z,100880.75
2022-08-09T19:24:33.356Z,100875.78
2022-08-09T19:26:34.668Z,100883.78
2022-08-09T19:29:09.778Z,100886.19
2022-08-09T19:31:49.572Z,100885.72
2022-08-09T19:34:24.620Z,100894.44
2022-08-09T19:36:55.699Z,100898.22
2022-08-09T19:39:28.880Z,100902.75
2022-08-09T19:42:03.793Z,100901.59
2022-08-09T19:44:33.118Z,100901.00
2022-08-09T19:47:03.842Z,100904.13
2022-08-09T19:50:09.569Z,100905.03
2022-08-09T19:52:22.405Z,100904.41
2022-08-09T19:54:53.753Z,100910.53
2022-08-09T19:57:25.707Z,100909.22
2022-08-09T19:59:59.366Z,100908.28
2022-08-09T20:04:16.821Z,100914.53
2022-08-09T20:05:30.117Z,100914.31
2022-08-09T20:08:16.044Z,100915.13
2022-08-09T20:10:53.804Z,100916.34
2022-08-09T20:13:22.202Z,100919.28
2022-08-09T20:16:32.902Z,100918.63
2022-08-09T20:19:03.683Z,100919.91
2022-08-09T20:21:54.854Z,100914.31
2022-08-09T20:24:29.913Z,100922.78
2022-08-09T20:27:08.060Z,100917.13
2022-08-09T20:29:39.361Z,100923.97
2022-08-09T20:32:30.153Z,100921.28
2022-08-09T20:34:58.252Z,100922.50
2022-08-09T20:38:18.936Z,100923.25
2022-08-09T20:40:26.296Z,100933.94
2022-08-09T20:42:59.895Z,100931.25
2022-08-09T20:46:00.402Z,100930.00
2022-08-09T20:48:31.712Z,100924.56
2022-08-09T20:51:03.137Z,100927.66
2022-08-09T20:53:36.992Z,100927.72
2022-08-09T20:56:20.311Z,100933.06
2022-08-09T20:58:58.687Z,100923.53
2022-08-09T21:01:34.113Z,100930.06
2022-08-09T21:05:51.204Z,100924.38
2022-08-09T21:07:11.982Z,100924.78
2022-08-09T21:09:45.813Z,100923.91
2022-08-09T21:14:46.162Z,100923.97
2022-08-09T21:18:21.808Z,100928.56
2022-08-09T21:20:23.008Z,100919.97
2022-08-09T21:22:55.569Z,100924.47
2022-08-09T21:25:44.310Z,100918.31
2022-08-09T21:28:35.075Z,100918.72
2022-08-09T21:31:16.621Z,100915.44
2022-08-09T21:33:50.788Z,100913.78
2022-08-09T21:36:28.703Z,100910.28
2022-08-09T21:38:58.817Z,100907.66
2022-08-09T21:42:04.188Z,100909.28
2022-08-09T21:44:33.867Z,100904.59
2022-08-09T21:47:05.721Z,100899.66
2022-08-09T21:49:39.589Z,100902.13
2022-08-09T21:52:14.690Z,100908.06
2022-08-09T21:54:50.513Z,100909.13
2022-08-09T21:57:25.449Z,100914.53
2022-08-09T22:00:15.001Z,100906.00
2022-08-09T22:02:44.094Z,100911.13
2022-08-09T22:05:23.603Z,100907.78
2022-08-09T22:07:54.241Z,100910.81
2022-08-09T22:10:24.093Z,100908.41
2022-08-09T22:12:54.090Z,100912.38
2022-08-09T22:15:23.497Z,100916.34
2022-08-09T22:18:04.071Z,100914.72
2022-08-09T22:20:32.482Z,100915.41
2022-08-09T22:23:02.268Z,100917.53
2022-08-09T22:26:07.033Z,100912.47
2022-08-09T22:28:32.660Z,100924.72
2022-08-09T22:31:02.482Z,100917.78
2022-08-09T22:33:42.616Z,100927.69
2022-08-09T22:36:19.259Z,100932.31
2022-08-09T22:38:48.783Z,100936.41
2022-08-09T22:41:17.605Z,100932.03
2022-08-09T22:44:03.443Z,100936.16
2022-08-09T22:48:18.731Z,100941.06
2022-08-09T22:49:22.664Z,100940.22
2022-08-09T22:51:57.494Z,100939.34
2022-08-09T22:54:27.515Z,100928.97
2022-08-09T22:56:58.653Z,100933.03
2022-08-09T22:59:58.468Z,100931.75
2022-08-09T23:02:20.370Z,100945.31
2022-08-09T23:04:53.322Z,100948.09
2022-08-09T23:08:22.665Z,100942.84
2022-08-09T23:10:30.938Z,100944.75
2022-08-09T23:13:00.227Z,100948.31
2022-08-09T23:15:30.914Z,100951.19
2022-08-09T23:17:59.472Z,100947.34
2022-08-09T23:20:28.760Z,100949.16
2022-08-09T23:22:57.188Z,100952.94
2022-08-09T23:25:25.672Z,100946.25
2022-08-09T23:27:58.417Z,100942.97
2022-08-09T23:30:51.370Z,100942.91
2022-08-09T23:33:20.733Z,100942.03
2022-08-09T23:36:07.120Z,100933.06
2022-08-09T23:38:48.997Z,100925.19
2022-08-09T23:41:27.434Z,100934.22
2022-08-09T23:43:59.213Z,100933.59
2022-08-09T23:46:30.437Z,100935.75
2022-08-09T23:48:59.163Z,100931.78
2022-08-09T23:51:27.889Z,100933.69
2022-08-09T23:54:02.952Z,100933.84
2022-08-09T23:56:52.145Z,100932.59
2022-08-09T23:59:21.526Z,100932.03
